sensor_id;sensor_type;location;lat;lon;timestamp;P1;durP1;ratioP1;P2;durP2;ratioP2
12165;SDS011;6146;48.128;11.476;2023-03-12T00:01:51;11.20;;;6.67;;
12165;SDS011;6146;48.128;11.476;2023-03-12T00:04:17;8.97;;;6.87;;
12165;SDS011;6146;48.128;11.476;2023-03-12T00:06:42;9.93;;;6.93;;
12165;SDS011;6146;48.128;11.476;2023-03-12T00:09:08;8.13;;;6.47;;
12165;SDS011;6146;48.128;11.476;2023-03-12T00:11:33;8.63;;;6.90;;
12165;SDS011;6146;48.128;11.476;2023-03-12T00:13:59;8.53;;;7.10;;
12165;SDS011;6146;48.128;11.476;2023-03-12T00:16:25;10.43;;;7.03;;
12165;SDS011;6146;48.128;11.476;2023-03-12T00:18:51;10.60;;;7.80;;
12165;SDS011;6146;48.128;11.476;2023-03-12T00:21:18;7.77;;;6.83;;
12165;SDS011;6146;48.128;11.476;2023-03-12T00:23:46;10.50;;;6.97;;
12165;SDS011;6146;48.128;11.476;2023-03-12T00:26:12;9.70;;;6.90;;
12165;SDS011;6146;48.128;11.476;2023-03-12T00:28:38;10.03;;;7.00;;
12165;SDS011;6146;48.128;11.476;2023-03-12T00:33:44;8.20;;;6.73;;
12165;SDS011;6146;48.128;11.476;2023-03-12T00:36:10;10.63;;;6.03;;
12165;SDS011;6146;48.128;11.476;2023-03-12T00:38:36;8.13;;;6.10;;
12165;SDS011;6146;48.128;11.476;2023-03-12T00:41:01;8.87;;;6.93;;
12165;SDS011;6146;48.128;11.476;2023-03-12T00:43:27;10.07;;;5.93;;
12165;SDS011;6146;48.128;11.476;2023-03-12T00:45:52;6.00;;;5.10;;
12165;SDS011;6146;48.128;11.476;2023-03-12T00:48:18;7.37;;;5.30;;
12165;SDS011;6146;48.128;11.476;2023-03-12T00:50:43;6.07;;;5.13;;
12165;SDS011;6146;48.128;11.476;2023-03-12T00:53:09;7.33;;;5.60;;
12165;SDS011;6146;48.128;11.476;2023-03-12T00:55:34;8.63;;;5.87;;
12165;SDS011;6146;48.128;11.476;2023-03-12T00:58:00;6.50;;;5.13;;
12165;SDS011;6146;48.128;11.476;2023-03-12T01:00:26;6.03;;;5.10;;
12165;SDS011;6146;48.128;11.476;2023-03-12T01:02:51;7.23;;;5.47;;
12165;SDS011;6146;48.128;11.476;2023-03-12T01:05:18;6.50;;;5.77;;
12165;SDS011;6146;48.128;11.476;2023-03-12T01:07:45;7.83;;;5.70;;
12165;SDS011;6146;48.128;11.476;2023-03-12T01:10:12;7.07;;;5.43;;
12165;SDS011;6146;48.128;11.476;2023-03-12T01:12:40;6.97;;;5.40;;
12165;SDS011;6146;48.128;11.476;2023-03-12T01:15:07;8.90;;;6.07;;
12165;SDS011;6146;48.128;11.476;2023-03-12T01:17:33;7.63;;;6.03;;
12165;SDS011;6146;48.128;11.476;2023-03-12T01:19:58;6.27;;;5.57;;
12165;SDS011;6146;48.128;11.476;2023-03-12T01:22:24;9.07;;;6.30;;
12165;SDS011;6146;48.128;11.476;2023-03-12T01:24:49;8.90;;;6.13;;
12165;SDS011;6146;48.128;11.476;2023-03-12T01:27:15;6.40;;;5.50;;
12165;SDS011;6146;48.128;11.476;2023-03-12T01:29:41;6.73;;;5.60;;
12165;SDS011;6146;48.128;11.476;2023-03-12T01:32:06;5.50;;;4.90;;
12165;SDS011;6146;48.128;11.476;2023-03-12T01:34:32;10.33;;;6.17;;
12165;SDS011;6146;48.128;11.476;2023-03-12T01:36:59;6.43;;;5.13;;
12165;SDS011;6146;48.128;11.476;2023-03-12T01:39:25;5.97;;;4.40;;
12165;SDS011;6146;48.128;11.476;2023-03-12T01:41:50;5.93;;;4.77;;
12165;SDS011;6146;48.128;11.476;2023-03-12T01:44:16;5.40;;;4.87;;
12165;SDS011;6146;48.128;11.476;2023-03-12T01:46:42;7.47;;;5.10;;
12165;SDS011;6146;48.128;11.476;2023-03-12T01:49:10;7.40;;;5.10;;
12165;SDS011;6146;48.128;11.476;2023-03-12T01:51:51;6.07;;;4.90;;
12165;SDS011;6146;48.128;11.476;2023-03-12T01:57:15;7.30;;;4.93;;
12165;SDS011;6146;48.128;11.476;2023-03-12T01:59:48;6.67;;;4.97;;
12165;SDS011;6146;48.128;11.476;2023-03-12T02:02:16;5.33;;;4.07;;
12165;SDS011;6146;48.128;11.476;2023-03-12T02:04:47;5.20;;;4.53;;
12165;SDS011;6146;48.128;11.476;2023-03-12T02:07:15;5.27;;;4.07;;
12165;SDS011;6146;48.128;11.476;2023-03-12T02:09:46;6.17;;;3.73;;
12165;SDS011;6146;48.128;11.476;2023-03-12T02:12:13;3.97;;;3.50;;
12165;SDS011;6146;48.128;11.476;2023-03-12T02:14:40;4.07;;;3.50;;
12165;SDS011;6146;48.128;11.476;2023-03-12T02:17:06;5.00;;;3.80;;
12165;SDS011;6146;48.128;11.476;2023-03-12T02:22:10;6.77;;;4.10;;
12165;SDS011;6146;48.128;11.476;2023-03-12T02:24:57;5.63;;;3.60;;
12165;SDS011;6146;48.128;11.476;2023-03-12T02:27:30;5.57;;;4.50;;
12165;SDS011;6146;48.128;11.476;2023-03-12T02:29:58;5.10;;;3.80;;
12165;SDS011;6146;48.128;11.476;2023-03-12T02:32:27;3.93;;;3.30;;
12165;SDS011;6146;48.128;11.476;2023-03-12T02:34:56;4.50;;;3.80;;
12165;SDS011;6146;48.128;11.476;2023-03-12T02:37:24;4.17;;;3.13;;
12165;SDS011;6146;48.128;11.476;2023-03-12T02:39:52;4.90;;;3.27;;
12165;SDS011;6146;48.128;11.476;2023-03-12T02:42:21;4.53;;;3.33;;
12165;SDS011;6146;48.128;11.476;2023-03-12T02:44:47;4.80;;;3.20;;
12165;SDS011;6146;48.128;11.476;2023-03-12T02:47:13;5.80;;;3.57;;
12165;SDS011;6146;48.128;11.476;2023-03-12T02:49:39;3.83;;;3.10;;
12165;SDS011;6146;48.128;11.476;2023-03-12T02:52:05;5.07;;;3.40;;
12165;SDS011;6146;48.128;11.476;2023-03-12T02:54:30;4.47;;;3.10;;
12165;SDS011;6146;48.128;11.476;2023-03-12T02:56:56;5.43;;;3.33;;
12165;SDS011;6146;48.128;11.476;2023-03-12T02:59:22;3.67;;;2.80;;
12165;SDS011;6146;48.128;11.476;2023-03-12T03:01:51;3.77;;;2.87;;
12165;SDS011;6146;48.128;11.476;2023-03-12T03:04:18;6.17;;;3.53;;
12165;SDS011;6146;48.128;11.476;2023-03-12T03:06:44;3.67;;;3.03;;
12165;SDS011;6146;48.128;11.476;2023-03-12T03:09:11;4.73;;;4.23;;
12165;SDS011;6146;48.128;11.476;2023-03-12T03:11:37;4.50;;;3.40;;
12165;SDS011;6146;48.128;11.476;2023-03-12T03:14:02;4.37;;;3.60;;
12165;SDS011;6146;48.128;11.476;2023-03-12T03:16:30;4.67;;;3.43;;
12165;SDS011;6146;48.128;11.476;2023-03-12T03:18:56;4.23;;;3.73;;
12165;SDS011;6146;48.128;11.476;2023-03-12T03:21:21;4.53;;;3.97;;
12165;SDS011;6146;48.128;11.476;2023-03-12T03:23:48;4.90;;;3.70;;
12165;SDS011;6146;48.128;11.476;2023-03-12T03:26:15;5.30;;;4.30;;
12165;SDS011;6146;48.128;11.476;2023-03-12T03:28:42;6.10;;;4.50;;
12165;SDS011;6146;48.128;11.476;2023-03-12T03:31:08;5.77;;;4.33;;
12165;SDS011;6146;48.128;11.476;2023-03-12T03:33:35;5.40;;;4.13;;
12165;SDS011;6146;48.128;11.476;2023-03-12T03:36:03;5.60;;;4.23;;
12165;SDS011;6146;48.128;11.476;2023-03-12T03:38:31;5.30;;;4.80;;
12165;SDS011;6146;48.128;11.476;2023-03-12T03:40:58;5.43;;;4.87;;
12165;SDS011;6146;48.128;11.476;2023-03-12T03:43:24;5.93;;;4.80;;
12165;SDS011;6146;48.128;11.476;2023-03-12T03:46:00;5.57;;;4.67;;
12165;SDS011;6146;48.128;11.476;2023-03-12T03:48:28;7.10;;;4.83;;
12165;SDS011;6146;48.128;11.476;2023-03-12T03:50:53;5.60;;;4.47;;
12165;SDS011;6146;48.128;11.476;2023-03-12T03:53:23;7.43;;;4.77;;
12165;SDS011;6146;48.128;11.476;2023-03-12T03:55:48;5.63;;;4.63;;
12165;SDS011;6146;48.128;11.476;2023-03-12T03:58:14;6.50;;;4.43;;
12165;SDS011;6146;48.128;11.476;2023-03-12T04:00:42;5.80;;;5.03;;
12165;SDS011;6146;48.128;11.476;2023-03-12T04:03:09;6.50;;;5.10;;
12165;SDS011;6146;48.128;11.476;2023-03-12T04:05:34;7.13;;;4.97;;
12165;SDS011;6146;48.128;11.476;2023-03-12T04:08:00;5.47;;;4.53;;
12165;SDS011;6146;48.128;11.476;2023-03-12T04:10:27;4.83;;;4.33;;
12165;SDS011;6146;48.128;11.476;2023-03-12T04:12:53;5.57;;;4.40;;
12165;SDS011;6146;48.128;11.476;2023-03-12T04:15:19;6.37;;;4.80;;
12165;SDS011;6146;48.128;11.476;2023-03-12T04:17:45;5.13;;;4.57;;
12165;SDS011;6146;48.128;11.476;2023-03-12T04:20:11;5.57;;;4.87;;
12165;SDS011;6146;48.128;11.476;2023-03-12T04:22:37;4.97;;;4.47;;
12165;SDS011;6146;48.128;11.476;2023-03-12T04:25:02;7.43;;;5.43;;
12165;SDS011;6146;48.128;11.476;2023-03-12T04:27:28;5.83;;;4.83;;
12165;SDS011;6146;48.128;11.476;2023-03-12T04:29:54;6.17;;;5.37;;
12165;SDS011;6146;48.128;11.476;2023-03-12T04:32:20;5.87;;;5.13;;
12165;SDS011;6146;48.128;11.476;2023-03-12T04:34:45;4.90;;;4.40;;
12165;SDS011;6146;48.128;11.476;2023-03-12T04:37:11;7.23;;;5.20;;
12165;SDS011;6146;48.128;11.476;2023-03-12T04:39:40;5.80;;;4.77;;
12165;SDS011;6146;48.128;11.476;2023-03-12T04:42:06;6.50;;;5.27;;
12165;SDS011;6146;48.128;11.476;2023-03-12T04:44:32;6.43;;;5.00;;
12165;SDS011;6146;48.128;11.476;2023-03-12T04:46:58;6.13;;;5.53;;
12165;SDS011;6146;48.128;11.476;2023-03-12T04:49:24;6.93;;;5.60;;
12165;SDS011;6146;48.128;11.476;2023-03-12T04:51:49;5.70;;;5.00;;
12165;SDS011;6146;48.128;11.476;2023-03-12T04:54:15;6.07;;;5.30;;
12165;SDS011;6146;48.128;11.476;2023-03-12T04:56:41;7.10;;;5.37;;
12165;SDS011;6146;48.128;11.476;2023-03-12T04:59:06;6.73;;;5.27;;
12165;SDS011;6146;48.128;11.476;2023-03-12T05:01:33;6.63;;;5.53;;
12165;SDS011;6146;48.128;11.476;2023-03-12T05:04:00;6.90;;;6.20;;
12165;SDS011;6146;48.128;11.476;2023-03-12T05:06:26;7.87;;;6.40;;
12165;SDS011;6146;48.128;11.476;2023-03-12T05:08:52;6.57;;;5.63;;
12165;SDS011;6146;48.128;11.476;2023-03-12T05:11:18;9.07;;;6.03;;
12165;SDS011;6146;48.128;11.476;2023-03-12T05:13:45;9.23;;;6.40;;
12165;SDS011;6146;48.128;11.476;2023-03-12T05:16:11;8.97;;;6.50;;
12165;SDS011;6146;48.128;11.476;2023-03-12T05:18:38;8.63;;;6.93;;
12165;SDS011;6146;48.128;11.476;2023-03-12T05:21:08;8.33;;;6.80;;
12165;SDS011;6146;48.128;11.476;2023-03-12T05:23:37;7.33;;;5.97;;
12165;SDS011;6146;48.128;11.476;2023-03-12T05:26:04;8.90;;;6.63;;
12165;SDS011;6146;48.128;11.476;2023-03-12T05:28:30;7.80;;;6.50;;
12165;SDS011;6146;48.128;11.476;2023-03-12T05:30:57;8.37;;;7.07;;
12165;SDS011;6146;48.128;11.476;2023-03-12T05:33:24;7.13;;;5.97;;
12165;SDS011;6146;48.128;11.476;2023-03-12T05:35:50;8.47;;;6.30;;
12165;SDS011;6146;48.128;11.476;2023-03-12T05:38:16;7.30;;;6.17;;
12165;SDS011;6146;48.128;11.476;2023-03-12T05:40:42;7.33;;;6.27;;
12165;SDS011;6146;48.128;11.476;2023-03-12T05:43:07;8.03;;;6.17;;
12165;SDS011;6146;48.128;11.476;2023-03-12T05:45:33;8.40;;;6.03;;
12165;SDS011;6146;48.128;11.476;2023-03-12T05:47:59;6.57;;;5.57;;
12165;SDS011;6146;48.128;11.476;2023-03-12T05:50:24;7.00;;;6.20;;
12165;SDS011;6146;48.128;11.476;2023-03-12T05:52:50;8.03;;;6.40;;
12165;SDS011;6146;48.128;11.476;2023-03-12T05:55:16;7.23;;;5.47;;
12165;SDS011;6146;48.128;11.476;2023-03-12T05:57:42;6.40;;;5.37;;
12165;SDS011;6146;48.128;11.476;2023-03-12T06:00:08;7.03;;;5.93;;
12165;SDS011;6146;48.128;11.476;2023-03-12T06:02:37;7.47;;;6.20;;
12165;SDS011;6146;48.128;11.476;2023-03-12T06:05:02;6.10;;;5.50;;
12165;SDS011;6146;48.128;11.476;2023-03-12T06:07:28;6.17;;;5.43;;
12165;SDS011;6146;48.128;11.476;2023-03-12T06:09:54;5.73;;;4.60;;
12165;SDS011;6146;48.128;11.476;2023-03-12T06:12:19;7.40;;;5.43;;
12165;SDS011;6146;48.128;11.476;2023-03-12T06:14:45;5.13;;;4.63;;
12165;SDS011;6146;48.128;11.476;2023-03-12T06:17:10;6.00;;;5.13;;
12165;SDS011;6146;48.128;11.476;2023-03-12T06:19:36;7.70;;;5.07;;
12165;SDS011;6146;48.128;11.476;2023-03-12T06:22:01;5.10;;;4.60;;
12165;SDS011;6146;48.128;11.476;2023-03-12T06:24:28;5.37;;;4.27;;
12165;SDS011;6146;48.128;11.476;2023-03-12T06:26:53;4.67;;;4.13;;
12165;SDS011;6146;48.128;11.476;2023-03-12T06:29:19;5.47;;;4.37;;
12165;SDS011;6146;48.128;11.476;2023-03-12T06:31:44;4.80;;;4.10;;
12165;SDS011;6146;48.128;11.476;2023-03-12T06:34:12;7.07;;;4.57;;
12165;SDS011;6146;48.128;11.476;2023-03-12T06:36:37;5.70;;;4.17;;
12165;SDS011;6146;48.128;11.476;2023-03-12T06:39:03;5.00;;;3.60;;
12165;SDS011;6146;48.128;11.476;2023-03-12T06:41:33;3.70;;;3.20;;
12165;SDS011;6146;48.128;11.476;2023-03-12T06:43:59;3.90;;;3.33;;
12165;SDS011;6146;48.128;11.476;2023-03-12T06:46:28;4.40;;;3.73;;
12165;SDS011;6146;48.128;11.476;2023-03-12T06:48:53;5.60;;;3.67;;
12165;SDS011;6146;48.128;11.476;2023-03-12T06:51:19;4.53;;;3.30;;
12165;SDS011;6146;48.128;11.476;2023-03-12T06:53:45;4.10;;;3.70;;
12165;SDS011;6146;48.128;11.476;2023-03-12T06:56:11;4.03;;;3.63;;
12165;SDS011;6146;48.128;11.476;2023-03-12T06:58:37;5.13;;;3.53;;
12165;SDS011;6146;48.128;11.476;2023-03-12T07:01:03;4.03;;;3.20;;
12165;SDS011;6146;48.128;11.476;2023-03-12T07:03:29;5.10;;;3.53;;
12165;SDS011;6146;48.128;11.476;2023-03-12T07:05:55;3.10;;;2.80;;
12165;SDS011;6146;48.128;11.476;2023-03-12T07:08:21;4.40;;;3.07;;
12165;SDS011;6146;48.128;11.476;2023-03-12T07:10:47;4.90;;;3.23;;
12165;SDS011;6146;48.128;11.476;2023-03-12T07:13:13;4.27;;;3.10;;
12165;SDS011;6146;48.128;11.476;2023-03-12T07:15:39;3.70;;;2.97;;
12165;SDS011;6146;48.128;11.476;2023-03-12T07:18:05;4.73;;;3.10;;
12165;SDS011;6146;48.128;11.476;2023-03-12T07:20:32;3.83;;;2.93;;
12165;SDS011;6146;48.128;11.476;2023-03-12T07:23:00;3.27;;;2.70;;
12165;SDS011;6146;48.128;11.476;2023-03-12T07:25:25;3.77;;;2.90;;
12165;SDS011;6146;48.128;11.476;2023-03-12T07:27:51;3.40;;;2.77;;
12165;SDS011;6146;48.128;11.476;2023-03-12T07:30:17;3.17;;;2.80;;
12165;SDS011;6146;48.128;11.476;2023-03-12T07:32:42;3.67;;;3.10;;
12165;SDS011;6146;48.128;11.476;2023-03-12T07:35:08;2.87;;;2.57;;
12165;SDS011;6146;48.128;11.476;2023-03-12T07:37:34;2.83;;;2.63;;
12165;SDS011;6146;48.128;11.476;2023-03-12T07:39:59;3.60;;;2.67;;
12165;SDS011;6146;48.128;11.476;2023-03-12T07:42:25;3.00;;;2.50;;
12165;SDS011;6146;48.128;11.476;2023-03-12T07:44:51;4.40;;;2.87;;
12165;SDS011;6146;48.128;11.476;2023-03-12T07:47:16;4.00;;;2.90;;
12165;SDS011;6146;48.128;11.476;2023-03-12T07:49:42;4.47;;;2.60;;
12165;SDS011;6146;48.128;11.476;2023-03-12T07:52:08;3.53;;;2.83;;
12165;SDS011;6146;48.128;11.476;2023-03-12T07:54:35;2.97;;;2.67;;
12165;SDS011;6146;48.128;11.476;2023-03-12T07:57:01;4.13;;;3.17;;
12165;SDS011;6146;48.128;11.476;2023-03-12T07:59:27;4.27;;;2.50;;
12165;SDS011;6146;48.128;11.476;2023-03-12T08:01:53;4.40;;;2.50;;
12165;SDS011;6146;48.128;11.476;2023-03-12T08:04:18;3.53;;;2.37;;
12165;SDS011;6146;48.128;11.476;2023-03-12T08:06:44;5.57;;;2.57;;
12165;SDS011;6146;48.128;11.476;2023-03-12T08:09:09;3.10;;;2.40;;
12165;SDS011;6146;48.128;11.476;2023-03-12T08:11:35;3.33;;;2.60;;
12165;SDS011;6146;48.128;11.476;2023-03-12T08:14:01;3.57;;;2.63;;
12165;SDS011;6146;48.128;11.476;2023-03-12T08:16:29;2.63;;;2.43;;
12165;SDS011;6146;48.128;11.476;2023-03-12T08:18:55;3.50;;;2.70;;
12165;SDS011;6146;48.128;11.476;2023-03-12T08:21:21;2.77;;;2.00;;
12165;SDS011;6146;48.128;11.476;2023-03-12T08:23:47;3.73;;;2.30;;
12165;SDS011;6146;48.128;11.476;2023-03-12T08:26:12;3.40;;;2.70;;
12165;SDS011;6146;48.128;11.476;2023-03-12T08:28:38;3.07;;;2.70;;
12165;SDS011;6146;48.128;11.476;2023-03-12T08:31:04;4.57;;;2.60;;
12165;SDS011;6146;48.128;11.476;2023-03-12T08:33:29;3.23;;;2.70;;
12165;SDS011;6146;48.128;11.476;2023-03-12T08:35:55;3.20;;;2.47;;
12165;SDS011;6146;48.128;11.476;2023-03-12T08:38:20;2.83;;;2.53;;
12165;SDS011;6146;48.128;11.476;2023-03-12T08:40:52;2.50;;;2.30;;
12165;SDS011;6146;48.128;11.476;2023-03-12T08:43:19;3.60;;;2.80;;
12165;SDS011;6146;48.128;11.476;2023-03-12T08:45:44;3.60;;;2.57;;
12165;SDS011;6146;48.128;11.476;2023-03-12T08:48:10;2.97;;;2.67;;
12165;SDS011;6146;48.128;11.476;2023-03-12T08:50:36;2.67;;;2.40;;
12165;SDS011;6146;48.128;11.476;2023-03-12T08:53:01;2.37;;;2.13;;
12165;SDS011;6146;48.128;11.476;2023-03-12T08:55:27;2.57;;;2.10;;
12165;SDS011;6146;48.128;11.476;2023-03-12T08:57:53;3.63;;;2.37;;
12165;SDS011;6146;48.128;11.476;2023-03-12T09:00:19;2.70;;;2.47;;
12165;SDS011;6146;48.128;11.476;2023-03-12T09:02:45;2.00;;;1.80;;
12165;SDS011;6146;48.128;11.476;2023-03-12T09:05:12;2.77;;;2.10;;
12165;SDS011;6146;48.128;11.476;2023-03-12T09:07:37;2.33;;;2.10;;
12165;SDS011;6146;48.128;11.476;2023-03-12T09:10:04;2.60;;;2.00;;
12165;SDS011;6146;48.128;11.476;2023-03-12T09:12:30;3.30;;;2.37;;
12165;SDS011;6146;48.128;11.476;2023-03-12T09:14:56;2.23;;;2.03;;
12165;SDS011;6146;48.128;11.476;2023-03-12T09:17:21;2.30;;;2.10;;
12165;SDS011;6146;48.128;11.476;2023-03-12T09:19:47;2.40;;;2.07;;
12165;SDS011;6146;48.128;11.476;2023-03-12T09:22:13;3.07;;;2.20;;
12165;SDS011;6146;48.128;11.476;2023-03-12T09:24:38;2.60;;;2.10;;
12165;SDS011;6146;48.128;11.476;2023-03-12T09:27:04;2.40;;;2.17;;
12165;SDS011;6146;48.128;11.476;2023-03-12T09:29:30;2.60;;;2.40;;
12165;SDS011;6146;48.128;11.476;2023-03-12T09:31:56;2.70;;;2.10;;
12165;SDS011;6146;48.128;11.476;2023-03-12T09:34:23;2.50;;;2.27;;
12165;SDS011;6146;48.128;11.476;2023-03-12T09:36:48;3.30;;;2.83;;
12165;SDS011;6146;48.128;11.476;2023-03-12T09:39:14;2.90;;;2.50;;
12165;SDS011;6146;48.128;11.476;2023-03-12T09:41:40;3.47;;;2.70;;
12165;SDS011;6146;48.128;11.476;2023-03-12T09:46:49;2.50;;;2.30;;
12165;SDS011;6146;48.128;11.476;2023-03-12T09:52:10;3.27;;;2.57;;
12165;SDS011;6146;48.128;11.476;2023-03-12T09:55:07;2.77;;;2.20;;
12165;SDS011;6146;48.128;11.476;2023-03-12T09:57:42;3.00;;;2.60;;
12165;SDS011;6146;48.128;11.476;2023-03-12T10:00:11;3.37;;;3.07;;
12165;SDS011;6146;48.128;11.476;2023-03-12T10:05:12;4.33;;;2.90;;
12165;SDS011;6146;48.128;11.476;2023-03-12T10:08:04;3.67;;;3.03;;
12165;SDS011;6146;48.128;11.476;2023-03-12T10:10:46;4.07;;;2.97;;
12165;SDS011;6146;48.128;11.476;2023-03-12T10:18:37;3.20;;;2.90;;
12165;SDS011;6146;48.128;11.476;2023-03-12T10:26:48;3.40;;;2.77;;
12165;SDS011;6146;48.128;11.476;2023-03-12T10:29:31;3.13;;;2.83;;
12165;SDS011;6146;48.128;11.476;2023-03-12T10:32:03;4.63;;;2.93;;
12165;SDS011;6146;48.128;11.476;2023-03-12T10:34:38;3.43;;;2.77;;
12165;SDS011;6146;48.128;11.476;2023-03-12T10:39:53;2.80;;;2.60;;
12165;SDS011;6146;48.128;11.476;2023-03-12T10:42:23;3.37;;;3.07;;
12165;SDS011;6146;48.128;11.476;2023-03-12T10:44:53;3.80;;;2.90;;
12165;SDS011;6146;48.128;11.476;2023-03-12T10:47:24;4.90;;;3.40;;
12165;SDS011;6146;48.128;11.476;2023-03-12T10:49:52;3.37;;;2.47;;
12165;SDS011;6146;48.128;11.476;2023-03-12T10:52:19;2.80;;;2.50;;
12165;SDS011;6146;48.128;11.476;2023-03-12T10:54:49;3.13;;;2.40;;
12165;SDS011;6146;48.128;11.476;2023-03-12T10:57:17;4.07;;;2.70;;
12165;SDS011;6146;48.128;11.476;2023-03-12T10:59:44;3.97;;;2.33;;
12165;SDS011;6146;48.128;11.476;2023-03-12T11:02:27;3.40;;;2.83;;
12165;SDS011;6146;48.128;11.476;2023-03-12T11:04:55;2.43;;;2.23;;
12165;SDS011;6146;48.128;11.476;2023-03-12T11:07:29;2.53;;;2.30;;
12165;SDS011;6146;48.128;11.476;2023-03-12T11:10:11;2.33;;;1.90;;
12165;SDS011;6146;48.128;11.476;2023-03-12T11:12:39;2.00;;;1.80;;
12165;SDS011;6146;48.128;11.476;2023-03-12T11:15:22;2.33;;;2.13;;
12165;SDS011;6146;48.128;11.476;2023-03-12T11:17:48;2.27;;;1.90;;
12165;SDS011;6146;48.128;11.476;2023-03-12T11:20:17;2.40;;;1.90;;
12165;SDS011;6146;48.128;11.476;2023-03-12T11:22:46;2.63;;;2.27;;
12165;SDS011;6146;48.128;11.476;2023-03-12T11:27:50;1.97;;;1.77;;
12165;SDS011;6146;48.128;11.476;2023-03-12T11:30:21;1.70;;;1.60;;
12165;SDS011;6146;48.128;11.476;2023-03-12T11:32:51;2.33;;;1.80;;
12165;SDS011;6146;48.128;11.476;2023-03-12T11:35:19;2.53;;;1.97;;
12165;SDS011;6146;48.128;11.476;2023-03-12T11:43:19;5.23;;;1.90;;
12165;SDS011;6146;48.128;11.476;2023-03-12T11:48:34;1.70;;;1.60;;
12165;SDS011;6146;48.128;11.476;2023-03-12T11:51:12;2.00;;;1.70;;
12165;SDS011;6146;48.128;11.476;2023-03-12T11:56:48;1.80;;;1.70;;
12165;SDS011;6146;48.128;11.476;2023-03-12T11:59:21;3.73;;;2.10;;
12165;SDS011;6146;48.128;11.476;2023-03-12T12:02:07;2.20;;;2.00;;
12165;SDS011;6146;48.128;11.476;2023-03-12T12:05:00;2.00;;;1.80;;
12165;SDS011;6146;48.128;11.476;2023-03-12T12:10:29;1.87;;;1.63;;
12165;SDS011;6146;48.128;11.476;2023-03-12T12:13:27;2.20;;;2.00;;
12165;SDS011;6146;48.128;11.476;2023-03-12T12:22:18;2.33;;;2.03;;
12165;SDS011;6146;48.128;11.476;2023-03-12T12:27:23;2.40;;;1.80;;
12165;SDS011;6146;48.128;11.476;2023-03-12T12:32:23;3.30;;;2.80;;
12165;SDS011;6146;48.128;11.476;2023-03-12T12:35:12;2.50;;;2.30;;
12165;SDS011;6146;48.128;11.476;2023-03-12T12:38:01;3.57;;;2.40;;
12165;SDS011;6146;48.128;11.476;2023-03-12T12:40:54;4.57;;;3.10;;
12165;SDS011;6146;48.128;11.476;2023-03-12T12:46:08;3.33;;;2.67;;
12165;SDS011;6146;48.128;11.476;2023-03-12T12:51:03;3.10;;;2.80;;
12165;SDS011;6146;48.128;11.476;2023-03-12T13:01:20;3.20;;;2.90;;
12165;SDS011;6146;48.128;11.476;2023-03-12T13:03:46;4.00;;;3.07;;
12165;SDS011;6146;48.128;11.476;2023-03-12T13:06:13;5.17;;;4.67;;
12165;SDS011;6146;48.128;11.476;2023-03-12T13:13:44;3.30;;;2.70;;
12165;SDS011;6146;48.128;11.476;2023-03-12T13:19:00;3.40;;;2.93;;
12165;SDS011;6146;48.128;11.476;2023-03-12T13:21:38;3.33;;;2.97;;
12165;SDS011;6146;48.128;11.476;2023-03-12T13:24:25;3.30;;;3.00;;
12165;SDS011;6146;48.128;11.476;2023-03-12T13:27:16;4.43;;;3.33;;
12165;SDS011;6146;48.128;11.476;2023-03-12T13:29:44;3.90;;;2.90;;
12165;SDS011;6146;48.128;11.476;2023-03-12T13:45:32;3.83;;;3.43;;
12165;SDS011;6146;48.128;11.476;2023-03-12T13:48:03;6.00;;;4.73;;
12165;SDS011;6146;48.128;11.476;2023-03-12T13:50:29;3.83;;;2.97;;
12165;SDS011;6146;48.128;11.476;2023-03-12T13:53:03;8.27;;;3.80;;
12165;SDS011;6146;48.128;11.476;2023-03-12T13:55:33;2.73;;;2.50;;
12165;SDS011;6146;48.128;11.476;2023-03-12T13:58:05;2.83;;;2.33;;
12165;SDS011;6146;48.128;11.476;2023-03-12T14:00:50;2.87;;;2.07;;
12165;SDS011;6146;48.128;11.476;2023-03-12T14:03:25;4.00;;;2.07;;
12165;SDS011;6146;48.128;11.476;2023-03-12T14:16:53;2.80;;;2.00;;
12165;SDS011;6146;48.128;11.476;2023-03-12T14:19:22;3.27;;;2.40;;
12165;SDS011;6146;48.128;11.476;2023-03-12T14:21:50;3.37;;;1.90;;
12165;SDS011;6146;48.128;11.476;2023-03-12T14:24:28;3.80;;;2.27;;
12165;SDS011;6146;48.128;11.476;2023-03-12T14:27:03;4.37;;;2.00;;
12165;SDS011;6146;48.128;11.476;2023-03-12T14:29:34;3.10;;;2.17;;
12165;SDS011;6146;48.128;11.476;2023-03-12T14:32:13;2.63;;;1.83;;
12165;SDS011;6146;48.128;11.476;2023-03-12T14:34:46;4.23;;;1.70;;
12165;SDS011;6146;48.128;11.476;2023-03-12T14:37:22;2.17;;;1.40;;
12165;SDS011;6146;48.128;11.476;2023-03-12T14:40:00;2.10;;;1.73;;
12165;SDS011;6146;48.128;11.476;2023-03-12T14:42:31;2.27;;;1.60;;
12165;SDS011;6146;48.128;11.476;2023-03-12T14:45:08;3.03;;;1.80;;
12165;SDS011;6146;48.128;11.476;2023-03-12T14:47:42;2.27;;;1.60;;
12165;SDS011;6146;48.128;11.476;2023-03-12T14:50:19;2.23;;;1.77;;
12165;SDS011;6146;48.128;11.476;2023-03-12T14:52:47;3.73;;;1.70;;
12165;SDS011;6146;48.128;11.476;2023-03-12T14:55:14;2.67;;;1.43;;
12165;SDS011;6146;48.128;11.476;2023-03-12T14:57:44;3.00;;;1.70;;
12165;SDS011;6146;48.128;11.476;2023-03-12T15:00:23;1.93;;;1.57;;
12165;SDS011;6146;48.128;11.476;2023-03-12T15:02:54;2.00;;;1.43;;
12165;SDS011;6146;48.128;11.476;2023-03-12T15:05:23;3.30;;;1.70;;
12165;SDS011;6146;48.128;11.476;2023-03-12T15:07:49;1.60;;;1.50;;
12165;SDS011;6146;48.128;11.476;2023-03-12T15:10:19;1.37;;;1.13;;
12165;SDS011;6146;48.128;11.476;2023-03-12T15:12:48;1.73;;;1.10;;
12165;SDS011;6146;48.128;11.476;2023-03-12T15:15:38;1.70;;;1.20;;
12165;SDS011;6146;48.128;11.476;2023-03-12T15:18:05;1.87;;;1.10;;
12165;SDS011;6146;48.128;11.476;2023-03-12T15:20:42;1.47;;;1.17;;
12165;SDS011;6146;48.128;11.476;2023-03-12T15:23:08;1.43;;;1.20;;
12165;SDS011;6146;48.128;11.476;2023-03-12T15:25:36;0.90;;;0.80;;
12165;SDS011;6146;48.128;11.476;2023-03-12T15:30:41;1.33;;;1.23;;
12165;SDS011;6146;48.128;11.476;2023-03-12T15:35:56;2.40;;;1.20;;
12165;SDS011;6146;48.128;11.476;2023-03-12T15:38:22;2.97;;;1.13;;
12165;SDS011;6146;48.128;11.476;2023-03-12T15:40:51;1.10;;;1.00;;
12165;SDS011;6146;48.128;11.476;2023-03-12T15:43:20;1.80;;;1.50;;
12165;SDS011;6146;48.128;11.476;2023-03-12T15:45:55;3.07;;;1.50;;
12165;SDS011;6146;48.128;11.476;2023-03-12T15:50:58;1.23;;;1.00;;
12165;SDS011;6146;48.128;11.476;2023-03-12T15:53:26;1.03;;;1.00;;
12165;SDS011;6146;48.128;11.476;2023-03-12T15:55:57;1.10;;;1.00;;
12165;SDS011;6146;48.128;11.476;2023-03-12T15:58:44;1.90;;;1.10;;
12165;SDS011;6146;48.128;11.476;2023-03-12T16:03:39;1.27;;;1.17;;
12165;SDS011;6146;48.128;11.476;2023-03-12T16:06:10;2.83;;;1.37;;
12165;SDS011;6146;48.128;11.476;2023-03-12T16:08:40;1.40;;;1.10;;
12165;SDS011;6146;48.128;11.476;2023-03-12T16:11:14;1.20;;;1.10;;
12165;SDS011;6146;48.128;11.476;2023-03-12T16:13:42;2.60;;;1.10;;
12165;SDS011;6146;48.128;11.476;2023-03-12T16:16:10;1.57;;;1.10;;
12165;SDS011;6146;48.128;11.476;2023-03-12T16:18:37;2.90;;;1.13;;
12165;SDS011;6146;48.128;11.476;2023-03-12T16:21:03;0.90;;;0.80;;
12165;SDS011;6146;48.128;11.476;2023-03-12T16:23:29;3.03;;;2.53;;
12165;SDS011;6146;48.128;11.476;2023-03-12T16:25:54;3.93;;;2.90;;
12165;SDS011;6146;48.128;11.476;2023-03-12T16:28:21;4.60;;;3.70;;
12165;SDS011;6146;48.128;11.476;2023-03-12T16:30:48;2.27;;;2.03;;
12165;SDS011;6146;48.128;11.476;2023-03-12T16:33:15;2.77;;;1.40;;
12165;SDS011;6146;48.128;11.476;2023-03-12T16:35:42;3.03;;;2.13;;
12165;SDS011;6146;48.128;11.476;2023-03-12T16:38:08;1.67;;;1.40;;
12165;SDS011;6146;48.128;11.476;2023-03-12T16:40:35;2.13;;;1.60;;
12165;SDS011;6146;48.128;11.476;2023-03-12T16:43:03;2.20;;;1.50;;
12165;SDS011;6146;48.128;11.476;2023-03-12T16:45:33;2.10;;;1.80;;
12165;SDS011;6146;48.128;11.476;2023-03-12T16:48:00;1.60;;;1.50;;
12165;SDS011;6146;48.128;11.476;2023-03-12T16:50:28;3.70;;;1.40;;